< < Back
Terminal Aerodrome Forecast


Current Version              Previous Versions:   1  2  3  4  5  6  7  8  9  

Terminal Aerodrome Forecast

297
FTUS44 KOHX 282137 AAA
TAFBNA
TAF AMD
KBNA 282137Z 2822/2918 36010KT P6SM VCTS SCT060CB
     FM290100 36006KT P6SM SKC=

Latest METAR

361
SAUS70 KWBC 290500 RRS
MTRBNA
METAR KBNA 290453Z 00000KT 10SM CLR 23/20 A3002 RMK AO2 SLP157
T02330200


USA.gov is the U.S. government's official web portal to all federal, state and local government web resources and services.